Craig, CO (81625)

10:38 PM MDT on July 26, 2016 (GMT -0600)
Craig-Moffat | | Change Station

Elev 6191 ft 40.49 °N, 107.52 °W | Updated 45 minutes ago

Clear
Clear
67 °F
Feels Like 67 °F
N
5
Wind Variable Wind from SE

Today
High -- | Low -- °F
--% Chance of Precip.
Yesterday
High -- | Low -- °F
Precip. -- in
Pressure 30.00 in
Visibility 10.0 miles
Clouds Clear
Dew Point 43 °F
Humidity 42%
Rainfall 0.06 in
Snow Depth Not available.
6:02 AM 8:30 PM
Waning Gibbous, 47% visible
METAR KCAG 270353Z AUTO 13004KT 10SM CLR 19/06 A3024 RMK AO2 SLP159 T01940061
Pressure 30.00 in
Visibility 10.0 miles
Clouds Clear
Dew Point 43 °F
Humidity 42%
Rainfall 0.06 in
Snow Depth Not available.
6:02 AM 8:30 PM
Waning Gibbous, 47% visible
METAR KCAG 270353Z AUTO 13004KT 10SM CLR 19/06 A3024 RMK AO2 SLP159 T01940061

10-Day Weather Forecast

Almanac

Astronomy

Jul. 26, 2016 Rise Set
Actual Time
Civil Twilight
Nautical Twilight
Astronomical Twilight
Moon
Length of Visible Light
Length of Day
Tomorrow will be .
, % of the Moon is Illuminated

Today's Extremes

State Highs State Lows

Community

WunderPhotos

Upload Photos

1,927,814 photos uploaded!

WunderBlog® & News

Nearby

Air Quality

  Air Quality AQ Index Pollutant
Not available.

Snow Depth

Station Depth Elevation

Earthquake Activity

City Distance Mag. Time & Date
Minimum magnitude displayed is 2.5.

Coastal Water Temperatures

Place Temperature

Stations

Nearby Weather Stations

Station Location Temp. Windchill Dew Point Humidity Wind Precip. Elev Updated Type
                   

Watches & Warnings

There are currently no watches in effect.